Dodgeville, Iowa
Current Conditions -  °F | °C
As of 3:53 AM on Sunday 23 Nov 2014 (Local Time) from KBRL Reporting Station
Overcast Overcast  
Wind Chill: 51°   Ceiling: 3500
Heat Index: 51°   Visibility: 10mi
Dew Point: 48°   Wind: 13mph
Humidity: 89%   Direction: 180°S
Pressure: 29.69"   Gusts: NA
Location:  40.9444°N, 91.2008°W
Report Text: KBRL 230953Z AUTO 18011KT 10SM OVC035 11/09 A2969 RMK AO2 SLP052 T01060089 $
Loading
Personal Weather Stations






























Interactive Weather Map New forecast layout! Learn more

10-Day Weather Forecast

Advertisements
Track Severe Weather on mobile